createdAt,value
2019-05-23T00:03:33.612Z,1.35
2019-05-23T00:08:37.093Z,0.98
2019-05-23T00:13:43.770Z,1.40
2019-05-23T00:18:46.076Z,1.50
2019-05-23T00:23:48.568Z,1.40
2019-05-23T00:29:07.540Z,0.90
2019-05-23T00:33:56.740Z,1.22
2019-05-23T00:38:59.978Z,1.02
2019-05-23T00:44:02.293Z,1.40
2019-05-23T00:49:05.901Z,1.10
2019-05-23T00:54:09.219Z,1.10
2019-05-23T00:59:25.946Z,1.35
2019-05-23T01:04:16.656Z,1.10
2019-05-23T01:09:19.348Z,1.30
2019-05-23T01:14:22.155Z,1.10
2019-05-23T01:19:25.638Z,1.10
2019-05-23T01:24:41.654Z,1.10
2019-05-23T01:29:49.679Z,1.00
2019-05-23T01:34:51.292Z,1.25
2019-05-23T01:39:53.600Z,1.05
2019-05-23T01:44:57.713Z,1.07
2019-05-23T01:50:01.255Z,1.35
2019-05-23T01:55:04.737Z,0.95
2019-05-23T02:00:10.953Z,1.00
2019-05-23T02:05:13.820Z,1.20
2019-05-23T02:10:16.775Z,1.10
2019-05-23T02:15:19.409Z,1.17
2019-05-23T02:20:22.351Z,1.23
2019-05-23T02:25:25.024Z,1.15
2019-05-23T02:30:34.715Z,1.00
2019-05-23T02:35:33.263Z,1.10
2019-05-23T02:40:37.277Z,0.82
2019-05-23T02:45:42.836Z,1.02
2019-05-23T02:50:46.389Z,1.00
2019-05-23T02:55:50.376Z,1.10
2019-05-23T03:00:55.837Z,0.95
2019-05-23T03:06:00.070Z,0.85
2019-05-23T03:11:09.892Z,0.95
2019-05-23T03:16:15.305Z,1.25
2019-05-23T03:21:18.521Z,0.80
2019-05-23T03:26:33.165Z,0.90
2019-05-23T03:31:37.289Z,0.70
2019-05-23T03:36:41.292Z,0.88
2019-05-23T03:41:43.861Z,0.90
2019-05-23T03:46:47.968Z,0.85
2019-05-23T03:51:50.711Z,1.22
2019-05-23T03:56:54.244Z,1.12
2019-05-23T04:01:57.092Z,1.00
2019-05-23T04:06:59.666Z,0.80
2019-05-23T04:12:02.272Z,1.15
2019-05-23T04:17:06.361Z,0.93
2019-05-23T04:22:08.668Z,0.93
2019-05-23T04:27:11.781Z,1.00
2019-05-23T04:32:14.887Z,1.00
2019-05-23T04:37:17.279Z,0.78
2019-05-23T04:42:19.620Z,0.80
2019-05-23T04:47:22.360Z,0.93
2019-05-23T04:52:25.024Z,1.05
2019-05-23T04:57:27.397Z,1.10
2019-05-23T05:02:30.176Z,0.90
2019-05-23T05:07:32.644Z,0.82
2019-05-23T05:12:35.016Z,0.93
2019-05-23T05:17:37.555Z,0.93
2019-05-23T05:22:40.132Z,0.95
2019-05-23T05:27:42.505Z,0.95
2019-05-23T05:32:45.790Z,0.88
2019-05-23T05:37:48.311Z,1.07
2019-05-23T05:42:51.588Z,0.80
2019-05-23T05:47:54.056Z,0.72
2019-05-23T05:52:56.432Z,0.60
2019-05-23T05:57:58.737Z,0.90
2019-05-23T06:03:05.104Z,0.57
2019-05-23T06:08:07.276Z,0.78
2019-05-23T06:13:09.599Z,0.78
2019-05-23T06:18:12.548Z,0.62
2019-05-23T06:23:15.496Z,1.00
2019-05-23T06:28:20.210Z,3.17
2019-05-23T06:33:24.332Z,2.83
2019-05-23T06:38:27.311Z,2.98
2019-05-23T06:43:29.675Z,3.20
2019-05-23T06:48:32.616Z,3.00
2019-05-23T06:53:34.916Z,2.90
2019-05-23T06:58:37.487Z,3.10
2019-05-23T07:03:43.159Z,3.90
2019-05-23T07:08:43.849Z,4.00
2019-05-23T07:13:47.437Z,3.65
2019-05-23T07:18:49.829Z,2.80
2019-05-23T07:23:52.192Z,2.40
2019-05-23T07:28:54.861Z,2.27
2019-05-23T07:34:02.302Z,2.22
2019-05-23T07:39:01.390Z,1.80
2019-05-23T07:44:04.207Z,2.90
2019-05-23T07:49:06.652Z,2.72
2019-05-23T07:54:22.736Z,2.30
2019-05-23T07:59:25.543Z,2.33
2019-05-23T08:04:28.491Z,2.20
2019-05-23T08:09:30.889Z,2.40
2019-05-23T08:14:33.545Z,2.25
2019-05-23T08:19:49.252Z,2.58
2019-05-23T08:24:40.454Z,2.60
2019-05-23T08:29:43.298Z,2.33
2019-05-23T08:34:45.661Z,2.37
2019-05-23T08:39:48.603Z,2.60
2019-05-23T08:44:51.092Z,2.00
2019-05-23T08:49:53.408Z,2.55
2019-05-23T08:54:57.263Z,3.00
2019-05-23T08:59:59.852Z,1.72
2019-05-23T09:05:05.393Z,2.30
2019-05-23T09:10:06.495Z,1.55
2019-05-23T09:15:10.261Z,2.22
2019-05-23T09:20:13.894Z,2.20
2019-05-23T09:25:16.453Z,2.65
2019-05-23T09:30:20.422Z,2.62
2019-05-23T09:35:22.916Z,2.23
2019-05-23T09:40:25.852Z,2.15
2019-05-23T09:45:28.167Z,2.17
2019-05-23T09:50:30.956Z,2.02
2019-05-23T09:55:34.536Z,2.27
2019-05-23T10:00:37.472Z,1.82
2019-05-23T10:05:43.598Z,1.77
2019-05-23T10:10:44.299Z,2.42
2019-05-23T10:15:48.332Z,2.80
2019-05-23T10:20:50.733Z,2.85
2019-05-23T10:25:53.112Z,2.15
2019-05-23T10:30:55.435Z,1.57
2019-05-23T10:36:00.867Z,2.02
2019-05-23T10:41:01.981Z,1.87
2019-05-23T10:46:04.465Z,2.05
2019-05-23T10:51:06.780Z,1.65
2019-05-23T10:56:09.372Z,1.50
2019-05-23T11:01:12.856Z,1.40
2019-05-23T11:06:17.103Z,1.50
2019-05-23T11:11:19.638Z,1.40
2019-05-23T11:16:22.225Z,1.92
2019-05-23T11:21:24.883Z,1.20
2019-05-23T11:26:27.281Z,1.20
2019-05-23T11:31:30.133Z,1.22
2019-05-23T11:36:36.279Z,1.20
2019-05-23T11:41:37.212Z,1.22
2019-05-23T11:46:39.603Z,1.02
2019-05-23T11:51:42.196Z,1.17
2019-05-23T11:56:45.502Z,1.55
2019-05-23T12:01:49.515Z,1.30
2019-05-23T12:06:56.054Z,1.40
2019-05-23T12:11:57.580Z,1.15
2019-05-23T12:17:00.075Z,1.00
2019-05-23T12:22:02.512Z,0.95
2019-05-23T12:27:05.074Z,1.27
2019-05-23T12:32:09.598Z,1.25
2019-05-23T12:37:18.884Z,1.02
2019-05-23T12:42:16.234Z,1.20
2019-05-23T12:47:20.240Z,0.80
2019-05-23T12:52:23.300Z,1.27
2019-05-23T12:57:25.990Z,0.98
2019-05-23T13:02:28.576Z,1.20
2019-05-23T13:07:36.153Z,1.20
2019-05-23T13:12:35.010Z,1.30
2019-05-23T13:17:37.401Z,1.47
2019-05-23T13:22:39.727Z,1.25
2019-05-23T13:27:42.048Z,1.55
2019-05-23T13:32:44.371Z,1.42
2019-05-23T13:37:53.612Z,1.22
2019-05-23T13:42:50.796Z,1.30
2019-05-23T13:47:53.119Z,1.40
2019-05-23T13:52:55.720Z,1.30
2019-05-23T13:57:59.777Z,1.42
2019-05-23T14:03:02.366Z,1.20
2019-05-23T14:08:12.447Z,1.12
2019-05-23T14:13:09.104Z,1.10
2019-05-23T14:18:13.067Z,0.90
2019-05-23T14:23:19.852Z,1.20
2019-05-23T14:28:22.536Z,1.12
2019-05-23T14:33:26.581Z,0.90
2019-05-23T14:38:31.552Z,1.22
2019-05-23T14:43:34.065Z,1.22
2019-05-23T14:48:41.031Z,1.47
2019-05-23T14:54:03.001Z,1.17
2019-05-23T14:59:05.548Z,1.10
2019-05-23T15:04:08.091Z,0.80
2019-05-23T15:09:10.393Z,0.93
2019-05-23T15:14:12.692Z,1.27
2019-05-23T15:19:15.001Z,1.30
2019-05-23T15:24:17.548Z,1.20
2019-05-23T15:29:19.865Z,0.90
2019-05-23T15:34:22.178Z,0.80
2019-05-23T15:39:25.148Z,1.05
2019-05-23T15:44:29.575Z,1.92
2019-05-23T15:49:33.129Z,2.20
2019-05-23T15:54:37.095Z,2.00
2019-05-23T15:59:44.148Z,2.00
2019-05-23T16:04:47.183Z,2.27
2019-05-23T16:09:49.676Z,5.60
2019-05-23T16:14:52.128Z,6.70
2019-05-23T16:19:54.444Z,7.55
2019-05-23T16:24:56.952Z,7.83
2019-05-23T16:29:59.484Z,5.20
2019-05-23T16:35:02.076Z,5.97
2019-05-23T16:40:06.128Z,5.12
2019-05-23T16:45:08.620Z,4.83
2019-05-23T16:50:11.019Z,3.87
2019-05-23T16:55:24.384Z,4.33
2019-05-23T17:00:45.173Z,4.05
2019-05-23T17:06:01.597Z,3.83
2019-05-23T17:11:05.581Z,3.08
2019-05-23T17:16:15.545Z,3.08
2019-05-23T17:21:22.741Z,2.98
2019-05-23T17:26:29.382Z,3.47
2019-05-23T17:31:33.623Z,2.42
2019-05-23T17:36:35.950Z,2.33
2019-05-23T17:41:38.524Z,1.87
2019-05-23T17:46:40.975Z,2.50
2019-05-23T17:51:43.280Z,2.40
2019-05-23T17:56:45.622Z,2.00
2019-05-23T18:01:48.447Z,1.50
2019-05-23T18:06:51.087Z,1.60
2019-05-23T18:11:55.506Z,1.82
2019-05-23T18:16:57.601Z,1.25
2019-05-23T18:22:00.340Z,1.55
2019-05-23T18:27:02.725Z,1.32
2019-05-23T18:32:06.831Z,1.27
2019-05-23T18:37:09.506Z,1.25
2019-05-23T18:42:13.043Z,1.67
2019-05-23T18:47:16.987Z,1.20
2019-05-23T18:52:19.455Z,0.98
2019-05-23T18:57:21.900Z,1.87
2019-05-23T19:02:24.984Z,1.25
2019-05-23T19:07:27.382Z,1.07
2019-05-23T19:12:29.751Z,1.17
2019-05-23T19:17:32.060Z,1.12
2019-05-23T19:22:34.436Z,0.98
2019-05-23T19:27:36.860Z,1.20
2019-05-23T19:32:39.159Z,1.10
2019-05-23T19:37:41.535Z,1.30
2019-05-23T19:42:43.984Z,1.30
2019-05-23T19:47:46.452Z,1.20
2019-05-23T19:52:48.770Z,1.15
2019-05-23T19:57:51.309Z,0.82
2019-05-23T20:02:55.326Z,1.12
2019-05-23T20:07:57.985Z,0.80
2019-05-23T20:13:00.348Z,1.00
2019-05-23T20:18:02.650Z,1.05
2019-05-23T20:23:05.131Z,1.07
2019-05-23T20:28:07.578Z,0.90
2019-05-23T20:33:10.006Z,0.93
2019-05-23T20:38:12.327Z,0.80
2019-05-23T20:43:14.704Z,1.15
2019-05-23T20:48:17.545Z,0.90
2019-05-23T20:53:19.851Z,0.80
2019-05-23T20:58:22.149Z,0.80
2019-05-23T21:03:25.719Z,0.95
2019-05-23T21:08:28.024Z,0.98
2019-05-23T21:13:32.551Z,0.88
2019-05-23T21:18:34.940Z,0.72
2019-05-23T21:23:37.571Z,0.88
2019-05-23T21:28:39.963Z,0.78
2019-05-23T21:33:42.263Z,0.90
2019-05-23T21:38:44.564Z,0.75
2019-05-23T21:43:48.135Z,0.90
2019-05-23T21:48:50.751Z,0.80
2019-05-23T21:53:53.147Z,0.78
2019-05-23T21:58:55.456Z,0.70
2019-05-23T22:04:05.309Z,1.22
2019-05-23T22:09:09.337Z,0.93
2019-05-23T22:14:11.708Z,0.80
2019-05-23T22:19:15.736Z,1.00
2019-05-23T22:24:19.722Z,0.65
2019-05-23T22:29:22.375Z,0.88
2019-05-23T22:34:26.329Z,0.72
2019-05-23T22:39:28.695Z,0.90
2019-05-23T22:44:31.064Z,0.60
2019-05-23T22:49:33.386Z,0.85
2019-05-23T22:54:35.885Z,0.70
2019-05-23T22:59:38.447Z,0.68
2019-05-23T23:04:40.751Z,1.00
2019-05-23T23:09:43.065Z,0.85
2019-05-23T23:14:45.365Z,0.82
2019-05-23T23:19:47.664Z,0.90
2019-05-23T23:24:50.035Z,0.70
2019-05-23T23:29:52.411Z,0.90
2019-05-23T23:34:54.711Z,0.80
2019-05-23T23:39:57.011Z,0.78
2019-05-23T23:45:17.572Z,0.82
2019-05-23T23:50:37.967Z,0.77
2019-05-23T23:55:58.435Z,0.80
